createdAt,value
2023-02-11T00:02:09.035Z,23.47
2023-02-11T00:04:35.968Z,27.67
2023-02-11T00:07:02.788Z,26.97
2023-02-11T00:09:31.806Z,25.07
2023-02-11T00:11:58.833Z,26.23
2023-02-11T00:14:25.507Z,28.60
2023-02-11T00:16:52.221Z,27.43
2023-02-11T00:19:19.155Z,27.03
2023-02-11T00:21:45.790Z,25.83
2023-02-11T00:24:12.441Z,23.73
2023-02-11T00:26:39.328Z,26.33
2023-02-11T00:29:06.443Z,24.90
2023-02-11T00:31:33.487Z,27.43
2023-02-11T00:34:00.566Z,32.57
2023-02-11T00:36:28.774Z,31.27
2023-02-11T00:38:56.939Z,29.83
2023-02-11T00:41:24.706Z,27.60
2023-02-11T00:43:52.547Z,28.83
2023-02-11T00:46:19.538Z,30.13
2023-02-11T00:48:46.331Z,28.63
2023-02-11T00:51:13.099Z,27.23
2023-02-11T00:53:40.128Z,33.57
2023-02-11T00:56:07.848Z,33.00
2023-02-11T00:58:34.954Z,31.43
2023-02-11T01:01:02.014Z,33.77
2023-02-11T01:03:29.091Z,29.87
2023-02-11T01:05:56.053Z,33.70
2023-02-11T01:08:22.869Z,31.10
2023-02-11T01:11:01.740Z,29.43
2023-02-11T01:13:30.183Z,29.93
2023-02-11T01:15:57.518Z,27.97
2023-02-11T01:18:24.515Z,30.97
2023-02-11T01:20:53.133Z,32.03
2023-02-11T01:23:20.213Z,28.00
2023-02-11T01:25:47.738Z,32.13
2023-02-11T01:28:25.095Z,34.10
2023-02-11T01:30:52.663Z,33.67
2023-02-11T01:33:19.832Z,30.83
2023-02-11T01:35:46.957Z,34.37
2023-02-11T01:38:20.008Z,31.20
2023-02-11T01:40:49.226Z,30.43
2023-02-11T01:43:16.234Z,29.97
2023-02-11T01:46:05.449Z,27.23
2023-02-11T01:48:40.881Z,28.33
2023-02-11T01:51:16.541Z,28.87
2023-02-11T01:54:03.419Z,31.33
2023-02-11T01:56:49.944Z,30.37
2023-02-11T01:59:22.686Z,31.70
2023-02-11T02:01:56.682Z,31.83
2023-02-11T02:04:27.614Z,32.67
2023-02-11T02:07:02.675Z,27.60
2023-02-11T02:09:36.669Z,31.00
2023-02-11T02:12:03.553Z,33.03
2023-02-11T02:14:30.462Z,27.67
2023-02-11T02:16:57.101Z,29.93
2023-02-11T02:20:06.112Z,31.13
2023-02-11T02:22:53.916Z,31.67
2023-02-11T02:25:47.634Z,26.83
2023-02-11T02:28:20.868Z,29.87
2023-02-11T02:30:57.202Z,24.27
2023-02-11T02:33:38.807Z,28.47
2023-02-11T02:36:37.061Z,30.67
2023-02-11T02:39:10.955Z,26.13
2023-02-11T02:41:39.243Z,24.47
2023-02-11T02:44:08.151Z,26.63
2023-02-11T02:46:36.480Z,27.63
2023-02-11T02:49:03.734Z,26.70
2023-02-11T02:51:50.873Z,25.27
2023-02-11T02:54:23.388Z,27.23
2023-02-11T02:57:16.244Z,29.27
2023-02-11T02:59:57.956Z,24.87
2023-02-11T03:02:42.523Z,28.47
2023-02-11T03:05:15.241Z,32.40
2023-02-11T03:07:57.834Z,26.53
2023-02-11T03:10:32.825Z,24.23
2023-02-11T03:13:01.137Z,24.73
2023-02-11T03:15:32.398Z,32.23
2023-02-11T03:18:01.898Z,25.30
2023-02-11T03:20:33.425Z,30.53
2023-02-11T03:23:44.852Z,28.87
2023-02-11T03:26:24.637Z,26.10
2023-02-11T03:29:14.512Z,29.83
2023-02-11T03:31:55.937Z,29.70
2023-02-11T03:34:57.510Z,29.00
2023-02-11T03:37:27.514Z,32.13
2023-02-11T03:39:59.892Z,33.37
2023-02-11T03:42:30.923Z,35.23
2023-02-11T03:45:04.033Z,30.03
2023-02-11T03:47:35.502Z,36.83
2023-02-11T03:50:05.807Z,37.33
2023-02-11T03:52:33.822Z,33.43
2023-02-11T03:55:05.199Z,30.13
2023-02-11T03:57:34.244Z,32.23
2023-02-11T04:00:01.594Z,32.70
2023-02-11T04:02:32.971Z,34.20
2023-02-11T04:05:00.230Z,34.17
2023-02-11T04:07:28.102Z,31.97
2023-02-11T04:09:54.773Z,31.73
2023-02-11T04:12:21.800Z,34.47
2023-02-11T04:14:48.710Z,29.20
2023-02-11T04:17:15.616Z,32.83
2023-02-11T04:19:42.262Z,28.10
2023-02-11T04:22:09.247Z,30.90
2023-02-11T04:24:36.097Z,34.90
2023-02-11T04:27:02.822Z,33.90
2023-02-11T04:29:29.560Z,34.67
2023-02-11T04:31:56.640Z,34.13
2023-02-11T04:34:24.470Z,32.37
2023-02-11T04:36:51.191Z,29.17
2023-02-11T04:39:17.890Z,33.50
2023-02-11T04:41:44.531Z,34.33
2023-02-11T04:44:11.200Z,32.00
2023-02-11T04:46:38.105Z,28.63
2023-02-11T04:49:04.778Z,37.60
2023-02-11T04:51:31.952Z,32.13
2023-02-11T04:53:58.604Z,34.63
2023-02-11T04:56:25.259Z,31.70
2023-02-11T04:58:52.163Z,33.03
2023-02-11T05:01:18.855Z,34.30
2023-02-11T05:03:46.343Z,34.83
2023-02-11T05:06:13.320Z,37.13
2023-02-11T05:08:40.119Z,31.80
2023-02-11T05:11:08.422Z,34.43
2023-02-11T05:13:35.112Z,31.97
2023-02-11T05:16:01.770Z,32.70
2023-02-11T05:18:28.652Z,37.03
2023-02-11T05:20:55.289Z,35.47
2023-02-11T05:23:21.966Z,38.07
2023-02-11T05:25:49.234Z,35.67
2023-02-11T05:28:16.239Z,35.07
2023-02-11T05:30:42.909Z,35.80
2023-02-11T05:33:09.908Z,34.80
2023-02-11T05:35:36.557Z,39.17
2023-02-11T05:38:05.469Z,37.03
2023-02-11T05:40:32.392Z,38.00
2023-02-11T05:42:59.295Z,41.53
2023-02-11T05:45:25.937Z,36.90
2023-02-11T05:47:52.610Z,39.40
2023-02-11T05:50:19.822Z,46.90
2023-02-11T05:52:46.791Z,45.23
2023-02-11T05:55:13.828Z,41.90
2023-02-11T05:57:40.740Z,43.57
2023-02-11T06:00:08.590Z,45.80
2023-02-11T06:02:35.387Z,41.23
2023-02-11T06:05:02.192Z,42.67
2023-02-11T06:07:28.816Z,42.73
2023-02-11T06:09:55.540Z,45.43
2023-02-11T06:12:22.228Z,44.03
2023-02-11T06:14:48.934Z,44.00
2023-02-11T06:17:15.911Z,48.27
2023-02-11T06:19:42.796Z,43.30
2023-02-11T06:22:09.502Z,42.00
2023-02-11T06:25:00.029Z,44.47
2023-02-11T06:27:24.188Z,38.30
2023-02-11T06:29:52.671Z,41.77
2023-02-11T06:32:39.550Z,41.87
2023-02-11T06:35:08.911Z,35.77
2023-02-11T06:37:36.935Z,37.50
2023-02-11T06:40:03.948Z,40.57
2023-02-11T06:42:30.593Z,40.40
2023-02-11T06:45:13.265Z,43.50
2023-02-11T06:47:40.903Z,41.07
2023-02-11T06:50:11.180Z,38.20
2023-02-11T06:52:37.841Z,40.20
2023-02-11T06:55:05.425Z,36.97
2023-02-11T06:57:32.486Z,38.97
2023-02-11T06:59:59.425Z,36.00
2023-02-11T07:02:26.443Z,32.77
2023-02-11T07:04:53.131Z,33.80
2023-02-11T07:07:19.761Z,37.10
2023-02-11T07:09:46.646Z,33.47
2023-02-11T07:12:13.341Z,33.27
2023-02-11T07:14:40.609Z,30.87
2023-02-11T07:17:07.256Z,27.77
2023-02-11T07:19:34.313Z,30.27
2023-02-11T07:22:00.970Z,30.67
2023-02-11T07:24:27.694Z,33.00
2023-02-11T07:26:54.906Z,30.03
2023-02-11T07:29:21.600Z,33.17
2023-02-11T07:31:48.435Z,30.17
2023-02-11T07:34:15.443Z,30.47
2023-02-11T07:36:43.780Z,31.10
2023-02-11T07:39:10.528Z,34.77
2023-02-11T07:41:38.277Z,36.53
2023-02-11T07:44:05.174Z,34.23
2023-02-11T07:46:32.956Z,37.40
2023-02-11T07:48:59.983Z,33.20
2023-02-11T07:51:28.778Z,35.73
2023-02-11T07:53:58.228Z,31.63
2023-02-11T07:56:24.985Z,38.83
2023-02-11T07:58:51.693Z,38.20
2023-02-11T08:01:22.768Z,38.53
2023-02-11T08:03:49.489Z,41.73
2023-02-11T08:06:18.626Z,39.00
2023-02-11T08:08:45.319Z,34.53
2023-02-11T08:11:21.612Z,40.97
2023-02-11T08:13:48.801Z,33.37
2023-02-11T08:16:21.397Z,35.80
2023-02-11T08:18:49.242Z,34.23
2023-02-11T08:21:16.152Z,32.70
2023-02-11T08:23:44.249Z,33.00
2023-02-11T08:26:15.468Z,31.90
2023-02-11T08:28:44.261Z,34.10
2023-02-11T08:31:14.531Z,33.00
2023-02-11T08:33:41.949Z,32.47
2023-02-11T08:36:14.351Z,35.80
2023-02-11T08:38:41.585Z,36.30
2023-02-11T08:41:08.479Z,35.73
2023-02-11T08:43:36.168Z,35.70
2023-02-11T08:46:03.584Z,38.80
2023-02-11T08:48:30.729Z,37.20
2023-02-11T08:50:57.643Z,38.00
2023-02-11T08:53:25.280Z,33.97
2023-02-11T08:55:53.958Z,31.97
2023-02-11T08:58:22.475Z,28.70
2023-02-11T09:00:50.174Z,30.13
2023-02-11T09:03:17.659Z,31.70
2023-02-11T09:05:46.845Z,29.33
2023-02-11T09:08:14.425Z,35.30
2023-02-11T09:10:50.737Z,32.53
2023-02-11T09:13:17.958Z,28.97
2023-02-11T09:15:47.607Z,35.50
2023-02-11T09:18:14.613Z,36.97
2023-02-11T09:20:41.717Z,34.97
2023-02-11T09:23:09.806Z,33.40
2023-02-11T09:25:40.097Z,28.47
2023-02-11T09:28:07.574Z,32.67
2023-02-11T09:30:36.233Z,32.57
2023-02-11T09:33:03.639Z,30.17
2023-02-11T09:35:30.573Z,29.00
2023-02-11T09:37:57.472Z,27.37
2023-02-11T09:40:24.160Z,29.67
2023-02-11T09:43:04.108Z,30.53
2023-02-11T09:45:32.189Z,33.17
2023-02-11T09:48:05.831Z,31.43
2023-02-11T09:50:36.520Z,32.13
2023-02-11T09:53:24.745Z,30.47
2023-02-11T09:55:57.519Z,32.27
2023-02-11T09:58:33.614Z,28.07
2023-02-11T10:01:38.173Z,31.47
2023-02-11T10:04:34.303Z,33.57
2023-02-11T10:07:26.753Z,32.33
2023-02-11T10:10:33.174Z,30.93
2023-02-11T10:13:19.323Z,30.47
2023-02-11T10:16:12.300Z,32.93
2023-02-11T10:19:08.654Z,34.10
2023-02-11T10:21:57.128Z,31.70
2023-02-11T10:24:24.188Z,28.63
2023-02-11T10:26:52.344Z,31.70
2023-02-11T10:29:31.301Z,29.63
2023-02-11T10:32:00.596Z,27.77
2023-02-11T10:34:27.409Z,32.73
2023-02-11T10:36:54.323Z,27.03
2023-02-11T10:39:23.412Z,33.63
2023-02-11T10:42:08.559Z,27.47
2023-02-11T10:44:52.139Z,33.57
2023-02-11T10:47:25.449Z,40.43
2023-02-11T10:49:52.152Z,32.07
2023-02-11T10:52:25.725Z,34.00
2023-02-11T10:55:13.694Z,33.80
2023-02-11T10:57:57.696Z,32.63
2023-02-11T11:00:39.142Z,31.73
2023-02-11T11:03:22.658Z,35.03
2023-02-11T11:06:01.467Z,32.90
2023-02-11T11:08:50.711Z,35.57
2023-02-11T11:11:25.758Z,33.57
2023-02-11T11:13:52.367Z,35.07
2023-02-11T11:16:36.285Z,34.30
2023-02-11T11:19:09.324Z,31.43
2023-02-11T11:21:53.624Z,30.67
2023-02-11T11:24:27.662Z,34.73
2023-02-11T11:26:57.392Z,29.17
2023-02-11T11:33:30.993Z,33.03
2023-02-11T11:36:05.164Z,36.27
2023-02-11T11:38:33.324Z,35.70
2023-02-11T11:41:25.304Z,34.10
2023-02-11T11:44:17.221Z,36.27
2023-02-11T11:46:46.959Z,34.37
2023-02-11T11:49:30.924Z,35.10
2023-02-11T11:52:22.454Z,36.60
2023-02-11T11:55:16.107Z,32.03
2023-02-11T11:57:44.183Z,32.73
2023-02-11T12:00:20.836Z,30.33
2023-02-11T12:03:20.242Z,31.97
2023-02-11T12:05:59.295Z,31.00
2023-02-11T12:09:00.119Z,35.07
2023-02-11T12:11:48.925Z,36.33
2023-02-11T12:14:43.363Z,30.87
2023-02-11T12:17:24.564Z,31.70
2023-02-11T12:20:18.046Z,35.60
2023-02-11T12:23:04.722Z,37.80
2023-02-11T12:25:44.944Z,30.17
2023-02-11T12:28:23.753Z,32.20
2023-02-11T12:31:30.612Z,33.53
2023-02-11T12:34:38.316Z,36.00
2023-02-11T12:37:31.999Z,33.67
2023-02-11T12:40:15.747Z,32.77
2023-02-11T12:43:09.523Z,36.20
2023-02-11T12:46:14.327Z,35.93
2023-02-11T12:48:59.459Z,34.43
2023-02-11T12:52:08.843Z,33.57
2023-02-11T12:55:09.378Z,41.83
2023-02-11T12:57:38.293Z,44.03
2023-02-11T13:00:22.284Z,41.23
2023-02-11T13:03:07.212Z,34.27
2023-02-11T13:05:43.447Z,33.30
2023-02-11T13:08:31.219Z,32.57
2023-02-11T13:11:06.022Z,33.53
2023-02-11T13:14:25.039Z,37.43
2023-02-11T13:16:52.931Z,33.77
2023-02-11T13:19:26.605Z,44.23
2023-02-11T13:22:02.767Z,39.03
2023-02-11T13:24:41.665Z,59.83
2023-02-11T13:27:31.435Z,41.70
2023-02-11T13:30:13.913Z,32.07
2023-02-11T13:32:58.471Z,39.83
2023-02-11T13:35:30.370Z,34.47
2023-02-11T13:38:02.438Z,33.43
2023-02-11T13:40:36.770Z,38.40
2023-02-11T13:43:20.136Z,34.27
2023-02-11T13:45:48.810Z,35.00
2023-02-11T13:48:31.893Z,39.53
2023-02-11T13:51:08.714Z,34.97
2023-02-11T13:53:51.689Z,38.27
2023-02-11T13:56:39.627Z,33.13
2023-02-11T13:59:30.648Z,36.90
2023-02-11T14:02:19.195Z,32.30
2023-02-11T14:05:20.926Z,40.47
2023-02-11T14:08:27.987Z,37.70
2023-02-11T14:11:22.748Z,38.20
2023-02-11T14:13:49.609Z,36.50
2023-02-11T14:16:37.062Z,43.47
2023-02-11T14:19:06.517Z,32.03
2023-02-11T14:21:37.665Z,35.53
2023-02-11T14:24:14.675Z,34.50
2023-02-11T14:26:50.469Z,38.03
2023-02-11T14:29:33.373Z,34.73
2023-02-11T14:32:38.135Z,33.60
2023-02-11T14:35:18.507Z,35.53
2023-02-11T14:38:28.044Z,36.90
2023-02-11T14:41:17.217Z,34.97
2023-02-11T14:43:47.946Z,35.50
2023-02-11T14:46:20.022Z,33.27
2023-02-11T14:48:49.280Z,42.37
2023-02-11T14:51:25.896Z,40.27
2023-02-11T14:53:59.225Z,38.40
2023-02-11T14:56:31.033Z,40.67
2023-02-11T14:58:58.778Z,38.80
2023-02-11T15:01:40.711Z,39.70
2023-02-11T15:04:24.278Z,38.60
2023-02-11T15:06:51.369Z,32.27
2023-02-11T15:09:24.182Z,38.30
2023-02-11T15:11:51.830Z,37.50
2023-02-11T15:14:26.024Z,42.97
2023-02-11T15:16:56.238Z,37.50
2023-02-11T15:19:41.418Z,38.37
2023-02-11T15:22:23.539Z,46.37
2023-02-11T15:25:08.424Z,44.03
2023-02-11T15:27:47.451Z,39.70
2023-02-11T15:30:23.392Z,39.63
2023-02-11T15:32:51.749Z,35.87
2023-02-11T15:35:18.936Z,38.03
2023-02-11T15:37:46.436Z,40.83
2023-02-11T15:40:23.896Z,39.20
2023-02-11T15:42:58.348Z,44.13
2023-02-11T15:45:51.629Z,33.90
2023-02-11T15:48:34.430Z,40.23
2023-02-11T15:51:17.588Z,38.43
2023-02-11T15:53:52.957Z,35.37
2023-02-11T15:56:25.422Z,39.33
2023-02-11T15:58:55.370Z,37.07
2023-02-11T16:01:34.368Z,39.07
2023-02-11T16:04:02.437Z,62.57
2023-02-11T16:06:43.600Z,76.10
2023-02-11T16:09:10.998Z,40.43
2023-02-11T16:11:55.323Z,42.33
2023-02-11T16:14:27.790Z,40.27
2023-02-11T16:16:57.956Z,41.60
2023-02-11T16:19:26.418Z,54.27
2023-02-11T16:21:55.130Z,39.53
2023-02-11T16:24:33.763Z,39.57
2023-02-11T16:27:03.217Z,39.70
2023-02-11T16:29:33.142Z,40.73
2023-02-11T16:32:38.518Z,37.77
2023-02-11T16:35:11.212Z,43.67
2023-02-11T16:37:38.320Z,38.63
2023-02-11T16:40:05.768Z,36.00
2023-02-11T16:42:32.424Z,39.47
2023-02-11T16:45:00.050Z,39.63
2023-02-11T16:47:28.407Z,36.27
2023-02-11T16:49:56.595Z,35.30
2023-02-11T16:52:23.817Z,35.27
2023-02-11T16:54:51.357Z,35.60
2023-02-11T16:57:20.841Z,34.47
2023-02-11T16:59:47.991Z,37.40
2023-02-11T17:02:31.103Z,34.13
2023-02-11T17:05:04.004Z,34.17
2023-02-11T17:07:31.113Z,36.40
2023-02-11T17:09:58.262Z,32.47
2023-02-11T17:12:25.470Z,36.33
2023-02-11T17:14:53.100Z,32.27
2023-02-11T17:17:20.092Z,31.93
2023-02-11T17:19:47.833Z,31.30
2023-02-11T17:22:14.775Z,32.83
2023-02-11T17:24:41.396Z,38.30
2023-02-11T17:27:09.541Z,44.97
2023-02-11T17:29:37.005Z,37.83
2023-02-11T17:32:03.814Z,46.60
2023-02-11T17:34:32.510Z,36.63
2023-02-11T17:37:00.169Z,37.67
2023-02-11T17:39:27.915Z,40.10
2023-02-11T17:41:54.577Z,33.00
2023-02-11T17:44:21.511Z,29.40
2023-02-11T17:46:48.557Z,30.77
2023-02-11T17:49:16.334Z,31.40
2023-02-11T17:51:43.032Z,35.60
2023-02-11T17:54:16.001Z,36.00
2023-02-11T17:56:43.268Z,31.07
2023-02-11T17:59:11.468Z,33.60
2023-02-11T18:01:39.575Z,31.40
2023-02-11T18:04:07.962Z,38.47
2023-02-11T18:06:35.056Z,32.20
2023-02-11T18:09:04.188Z,39.67
2023-02-11T18:11:33.691Z,34.63
2023-02-11T18:14:01.843Z,34.00
2023-02-11T18:16:30.159Z,35.77
2023-02-11T18:18:59.863Z,37.33
2023-02-11T18:21:26.688Z,38.63
2023-02-11T18:23:53.990Z,36.90
2023-02-11T18:26:21.910Z,202.50
2023-02-11T18:28:48.961Z,164.17
2023-02-11T18:31:17.364Z,63.77
2023-02-11T18:33:44.279Z,41.43
2023-02-11T18:36:15.601Z,36.57
2023-02-11T18:38:45.994Z,31.90
2023-02-11T18:41:13.727Z,36.63
2023-02-11T18:43:40.693Z,64.43
2023-02-11T18:46:10.788Z,42.07
2023-02-11T18:48:38.629Z,30.57
2023-02-11T18:51:10.276Z,35.47
2023-02-11T18:53:37.277Z,44.47
2023-02-11T18:56:16.334Z,50.93
2023-02-11T18:58:43.109Z,36.60
2023-02-11T19:01:24.400Z,37.70
2023-02-11T19:03:51.468Z,38.40
2023-02-11T19:06:21.219Z,40.67
2023-02-11T19:08:48.004Z,40.07
2023-02-11T19:11:17.290Z,33.83
2023-02-11T19:13:44.358Z,34.67
2023-02-11T19:16:12.494Z,31.90
2023-02-11T19:18:39.848Z,34.47
2023-02-11T19:21:11.570Z,30.77
2023-02-11T19:23:38.937Z,30.27
2023-02-11T19:26:06.472Z,35.37
2023-02-11T19:28:35.479Z,32.27
2023-02-11T19:31:07.177Z,33.80
2023-02-11T19:33:34.026Z,30.67
2023-02-11T19:36:05.747Z,35.37
2023-02-11T19:38:32.718Z,35.97
2023-02-11T19:40:59.525Z,29.17
2023-02-11T19:43:26.559Z,31.63
2023-02-11T19:46:02.322Z,28.27
2023-02-11T19:48:29.185Z,28.50
2023-02-11T19:50:56.273Z,36.37
2023-02-11T19:53:23.399Z,36.20
2023-02-11T19:55:51.077Z,39.50
2023-02-11T19:58:18.021Z,30.33
2023-02-11T20:00:44.784Z,34.10
2023-02-11T20:03:11.468Z,35.80
2023-02-11T20:05:40.217Z,31.57
2023-02-11T20:08:06.876Z,30.00
2023-02-11T20:10:34.903Z,28.57
2023-02-11T20:13:01.542Z,31.30
2023-02-11T20:15:28.485Z,35.43
2023-02-11T20:17:55.145Z,34.50
2023-02-11T20:20:21.853Z,33.17
2023-02-11T20:22:49.129Z,26.10
2023-02-11T20:25:15.840Z,29.57
2023-02-11T20:27:47.930Z,29.13
2023-02-11T20:30:15.029Z,28.13
2023-02-11T20:32:41.726Z,32.27
2023-02-11T20:35:09.394Z,34.33
2023-02-11T20:37:36.076Z,31.30
2023-02-11T20:40:02.849Z,33.23
2023-02-11T20:42:30.029Z,36.57
2023-02-11T20:44:56.906Z,30.27
2023-02-11T20:47:23.536Z,32.40
2023-02-11T20:49:50.336Z,26.20
2023-02-11T20:52:17.123Z,30.27
2023-02-11T20:54:43.762Z,31.53
2023-02-11T20:57:10.788Z,33.00
2023-02-11T20:59:38.890Z,29.43
2023-02-11T21:02:05.670Z,31.60
2023-02-11T21:04:32.807Z,26.80
2023-02-11T21:07:01.827Z,27.33
2023-02-11T21:09:31.088Z,27.03
2023-02-11T21:11:58.511Z,28.57
2023-02-11T21:14:25.982Z,27.13
2023-02-11T21:16:52.743Z,27.00
2023-02-11T21:19:20.320Z,23.77
2023-02-11T21:21:47.344Z,26.23
2023-02-11T21:24:14.353Z,24.07
2023-02-11T21:26:41.329Z,27.23
2023-02-11T21:29:08.664Z,24.97
2023-02-11T21:31:36.818Z,22.63
2023-02-11T21:34:04.135Z,25.43
2023-02-11T21:36:30.879Z,26.00
2023-02-11T21:38:58.547Z,26.57
2023-02-11T21:41:26.908Z,24.33
2023-02-11T21:43:53.627Z,27.20
2023-02-11T21:46:21.584Z,23.80
2023-02-11T21:48:49.135Z,27.87
2023-02-11T21:51:21.486Z,25.00
2023-02-11T21:53:52.467Z,26.10
2023-02-11T21:56:19.332Z,24.90
2023-02-11T21:58:46.698Z,24.53
2023-02-11T22:01:16.567Z,22.63
2023-02-11T22:03:44.079Z,23.67
2023-02-11T22:06:13.247Z,23.60
2023-02-11T22:08:40.541Z,23.80
2023-02-11T22:11:10.008Z,23.03
2023-02-11T22:13:37.153Z,21.60
2023-02-11T22:16:07.528Z,25.27
2023-02-11T22:18:34.687Z,24.57
2023-02-11T22:21:11.502Z,21.53
2023-02-11T22:23:39.165Z,21.40
2023-02-11T22:26:16.210Z,24.17
2023-02-11T22:28:43.530Z,24.07
2023-02-11T22:31:13.408Z,23.20
2023-02-11T22:33:40.891Z,20.07
2023-02-11T22:36:13.028Z,23.90
2023-02-11T22:38:39.667Z,21.97
2023-02-11T22:41:09.779Z,23.03
2023-02-11T22:43:36.886Z,22.00
2023-02-11T22:46:05.972Z,21.33
2023-02-11T22:48:34.438Z,18.87
2023-02-11T22:51:09.679Z,18.60
2023-02-11T22:53:36.635Z,21.07
2023-02-11T22:56:09.299Z,24.27
2023-02-11T22:58:36.744Z,21.20
2023-02-11T23:01:04.427Z,21.13
2023-02-11T23:03:31.726Z,20.90
2023-02-11T23:05:59.252Z,20.73
2023-02-11T23:08:26.785Z,24.03
2023-02-11T23:10:53.864Z,19.53
2023-02-11T23:13:20.676Z,21.97
2023-02-11T23:15:48.076Z,17.37
2023-02-11T23:18:14.841Z,20.00
2023-02-11T23:20:43.845Z,20.30
2023-02-11T23:23:10.811Z,19.87
2023-02-11T23:25:43.500Z,19.77
2023-02-11T23:28:11.828Z,23.97
2023-02-11T23:30:38.574Z,20.53
2023-02-11T23:33:05.353Z,20.30
2023-02-11T23:35:32.584Z,22.60
2023-02-11T23:37:59.237Z,19.70
2023-02-11T23:40:26.102Z,18.83
2023-02-11T23:42:52.764Z,23.53
2023-02-11T23:45:19.454Z,19.37
2023-02-11T23:47:47.794Z,20.00
2023-02-11T23:50:14.459Z,20.73
2023-02-11T23:52:41.602Z,21.33
2023-02-11T23:55:08.371Z,23.60
2023-02-11T23:57:35.468Z,19.70
